• Join FlightAware (Why Join?)
  • Login
  • US Flag 
03:13PM EST


 

Airport Tracker/Info


-or-


 

Live Flight TrackerFlight Track Log ✈ IBE479 ✈ 31-Jul-2013 ✈ LEAS / OVD - LEMD / MAD

Flight Track Log - Related Links

Times and Time Zones

All times are in EDT time to prevent confusion due to time zone crossing. See the IBE479 flight status page for this flight to view local times or setup timezone preferences in your user account.

Time Position Orientation Groundspeed Altitude Reporting Facility
EDT Latitude Longitude Course Direction KTS MPH feet Rate Location/Type
03:20AM 43.5850 -6.1190 290° West 163 188 3,900  Level FlightAware
03:20AM 43.5940 -6.1550 289° West 187 215 4,900 1,920 Climbing FlightAware
03:20AM 43.5960 -6.1660 284° West 190 219 5,200 1,980 Climbing FlightAware
03:21AM 43.5910 -6.1900 254° West 198 228 5,900 1,920 Climbing FlightAware
03:21AM 43.5880 -6.1940 224° Southwest 201 231 6,000 2,100 Climbing FlightAware
03:21AM 43.5740 -6.2000 197° South 218 251 6,600 2,400 Climbing FlightAware
03:21AM 43.5640 -6.1960 164° South 228 262 7,000 2,700 Climbing FlightAware
03:21AM 43.5530 -6.1910 162° South 234 269 7,500 3,180 Climbing FlightAware
03:22AM 43.5330 -6.1790 156° South 238 274 8,600 3,120 Climbing FlightAware
03:22AM 43.5290 -6.1770 160° South 238 274 8,800 2,580 Climbing FlightAware
03:22AM 43.4760 -6.1450 156° South 270 311 11,000 2,160 Climbing FlightAware
03:23AM 43.4320 -6.1200 158° South 312 359 11,900 2,760 Climbing FlightAware
03:24AM 43.3800 -6.0900 157° South 299 344 14,500 3,120 Climbing FlightAware
03:24AM 43.3330 -6.0640 158° South 314 361 15,900 2,400 Climbing FlightAware
03:25AM 43.2870 -6.0380 158° South 324 373 17,300 2,580 Climbing FlightAware
03:26AM 43.2300 -6.0060 158° South 330 380 19,100 2,520 Climbing FlightAware
03:26AM 43.1880 -5.9820 157° South 336 387 20,300 2,400 Climbing FlightAware
03:27AM 43.1360 -5.9540 159° South 343 395 21,700 2,400 Climbing FlightAware
03:27AM 43.0760 -5.9230 159° South 349 402 23,300 2,280 Climbing FlightAware
03:28AM 43.0200 -5.9070 168° South 351 404 24,600 2,160 Climbing FlightAware
03:28AM 42.9740 -5.9010 175° South 350 403 25,700 1,980 Climbing FlightAware
03:29AM 42.9140 -5.9050 183° South 359 413 26,800 1,860 Climbing FlightAware
03:30AM 42.8550 -5.9010 177° South 373 429 27,900 1,020 Climbing FlightAware
03:30AM 42.7940 -5.8900 172° South 383 441 28,000 60 Climbing FlightAware
03:31AM 42.7240 -5.8760 172° South 389 448 28,000  Level FlightAware
03:31AM 42.6680 -5.8640 171° South 391 450 28,000  Level FlightAware
03:32AM 42.6100 -5.8520 171° South 390 449 28,000  Level FlightAware
03:33AM 42.5360 -5.8380 172° South 391 450 28,000  Level FlightAware
03:33AM 42.4760 -5.8260 172° South 392 451 28,000  Level FlightAware
03:34AM 42.4160 -5.8140 172° South 392 451 28,000  Level FlightAware
03:34AM 42.3460 -5.8000 172° South 392 451 28,000  Level FlightAware
03:35AM 42.2920 -5.7890 171° South 392 451 28,000  Level FlightAware
03:35AM 42.2330 -5.7770 171° South 391 450 28,000  Level FlightAware
03:36AM 42.1610 -5.7630 172° South 392 451 28,000  Level FlightAware
03:37AM 42.1020 -5.7510 171° South 392 451 28,000  Level FlightAware
03:37AM 42.0370 -5.7390 172° South 392 451 28,000  Level FlightAware
03:38AM 41.9740 -5.7260 171° South 392 451 28,000  Level FlightAware
03:38AM 41.9100 -5.7140 172° South 391 450 28,000  Level FlightAware
03:39AM 41.8470 -5.7010 171° South 391 450 28,000  Level FlightAware
03:39AM 41.8020 -5.6930 172° South 392 451 28,000  Level FlightAware
03:40AM 41.7320 -5.6790 172° South 392 451 28,000  Level FlightAware
03:41AM 41.6670 -5.6660 172° South 392 451 28,000  Level FlightAware
03:41AM 41.6080 -5.6500 169° South 396 456 28,000  Level FlightAware
03:42AM 41.5440 -5.6180 159° South 401 461 28,000  Level FlightAware
03:42AM 41.4960 -5.5830 151° Southeast 406 467 28,000  Level FlightAware
03:43AM 41.4420 -5.5300 144° Southeast 410 472 28,000  Level FlightAware
03:43AM 41.4000 -5.4780 137° Southeast 411 473 28,000  Level FlightAware
03:44AM 41.3440 -5.4110 138° Southeast 409 471 28,000  Level FlightAware
03:45AM 41.2870 -5.3430 138° Southeast 408 470 28,000  Level FlightAware
03:45AM 41.2390 -5.2840 137° Southeast 409 471 28,000  Level FlightAware
03:46AM 41.1960 -5.2320 138° Southeast 409 471 28,000  Level FlightAware
03:46AM 41.1410 -5.1660 138° Southeast 401 461 28,000  Level FlightAware
03:47AM 41.0950 -5.1100 137° Southeast 364 419 28,000  Level FlightAware
03:48AM 41.0580 -5.0660 138° Southeast 351 404 28,000  Level FlightAware
03:48AM 41.0110 -5.0090 138° Southeast 350 403 28,000 -600 Level FlightAware
03:49AM 40.9690 -4.9590 138° Southeast 352 405 27,300 -1,500 Descending FlightAware
03:49AM 40.9330 -4.9160 138° Southeast 351 404 26,400 -1,440 Descending FlightAware
03:50AM 40.8910 -4.8660 138° Southeast 338 389 25,800 -1,380 Descending FlightAware
03:51AM 40.8450 -4.8110 138° Southeast 332 382 24,700 -1,500 Descending FlightAware
03:51AM 40.8110 -4.7700 138° Southeast 323 372 24,100 -1,440 Descending FlightAware
03:52AM 40.7720 -4.7250 139° Southeast 320 368 23,100 -1,800 Descending FlightAware
03:52AM 40.7280 -4.6720 138° Southeast 322 371 21,900 -1,620 Descending FlightAware
03:53AM 40.6960 -4.6330 137° Southeast 316 364 21,300 -1,440 Descending FlightAware
03:53AM 40.6580 -4.5900 139° Southeast 314 361 20,400 -1,440 Descending FlightAware
03:54AM 40.6140 -4.5370 138° Southeast 310 357 19,500 -1,500 Descending FlightAware
03:55AM 40.5820 -4.5000 139° Southeast 308 354 18,700 -1,380 Descending FlightAware
03:55AM 40.5420 -4.4530 138° Southeast 303 349 18,000 -1,320 Descending FlightAware
03:56AM 40.5040 -4.4080 138° Southeast 300 345 17,100 -1,260 Descending FlightAware
03:56AM 40.4670 -4.3640 138° Southeast 298 343 16,500 -960 Descending FlightAware
03:57AM 40.4320 -4.3240 139° Southeast 294 338 16,000 -480 Descending FlightAware
03:58AM 40.3950 -4.2800 138° Southeast 293 337 16,000  Level FlightAware
03:58AM 40.3550 -4.2330 138° Southeast 296 341 16,000  Level FlightAware
03:59AM 40.3290 -4.2060 142° Southeast 294 338 16,000  Level FlightAware
03:59AM 40.3240 -4.2040 163° South 291 335 16,000  Level FlightAware
03:59AM 40.2880 -4.2210 200° South 275 316 16,000  Level FlightAware
04:00AM 40.2810 -4.2450 249° West 273 314 16,000  Level FlightAware
04:00AM 40.2820 -4.2690 273° West 274 315 16,000  Level FlightAware
04:00AM 40.2960 -4.3230 289° West 273 314 16,000  Level FlightAware
04:01AM 40.3100 -4.3790 288° West 276 318 16,000  Level FlightAware
04:01AM 40.3220 -4.3980 310° West 280 322 16,000  Level FlightAware
04:01AM 40.3340 -4.4070 330° Northwest 284 327 16,000  Level FlightAware
04:01AM 40.3460 -4.4100 349° North 287 330 16,000  Level FlightAware
04:02AM 40.3720 -4.4020 13° North 294 338 16,000  Level FlightAware
04:02AM 40.3820 -4.3910 40° Northeast 297 342 16,000  Level FlightAware
04:02AM 40.3900 -4.3750 57° Northeast 299 344 16,000  Level FlightAware
04:02AM 40.3920 -4.3590 81° East 300 345 16,000  Level FlightAware
04:03AM 40.3870 -4.3210 100° East 299 344 16,000  Level FlightAware
04:03AM 40.3720 -4.2610 108° East 298 343 16,000  Level FlightAware
04:03AM 40.3650 -4.2370 111° Southeast 299 344 16,000 -240 Level FlightAware
04:04AM 40.3530 -4.2170 128° Southeast 297 342 15,900 -600 Descending FlightAware
04:04AM 40.3340 -4.2040 152° Southeast 289 333 15,700 -960 Descending FlightAware
04:04AM 40.2940 -4.1940 169° South 288 331 15,200 -1,200 Descending FlightAware
04:05AM 40.2830 -4.1840 145° Southeast 293 337 14,900 -1,440 Descending FlightAware
04:05AM 40.2710 -4.1640 128° Southeast 297 342 14,600 -1,200 Descending FlightAware
04:05AM 40.2650 -4.1330 104° East 297 342 14,200 -1,140 Descending FlightAware
04:06AM 40.2600 -4.0660 96° East 288 331 13,600 -1,140 Descending FlightAware
04:06AM 40.2540 -4.0090 98° East 284 327 12,900 -1,320 Descending FlightAware
04:07AM 40.2480 -3.9480 97° East 283 326 12,100 -1,380 Descending FlightAware
04:08AM 40.2410 -3.8780 97° East 282 325 11,200 -1,320 Descending FlightAware
04:08AM 40.2340 -3.8030 97° East 278 320 10,300 -1,260 Descending FlightAware
04:09AM 40.2310 -3.7710 97° East 275 316 9,900 -1,200 Descending FlightAware
04:09AM 40.2280 -3.7380 97° East 269 310 9,500 -1,320 Descending FlightAware
04:09AM 40.2250 -3.7110 98° East 263 303 9,100 -1,380 Descending FlightAware
04:10AM 40.2220 -3.6800 97° East 256 295 8,700 -1,500 Descending FlightAware
04:10AM 40.2190 -3.6490 97° East 253 291 8,100 -1,680 Descending FlightAware
04:10AM 40.2150 -3.6120 98° East 249 287 7,500 -1,620 Descending FlightAware
04:11AM 40.2120 -3.5850 98° East 251 289 7,000 -1,500 Descending FlightAware
04:11AM 40.2100 -3.5650 97° East 250 288 6,700 -1,320 Descending FlightAware
04:11AM 40.2070 -3.5280 96° East 249 287 6,200 -1,260 Descending FlightAware
04:12AM 40.2040 -3.5000 98° East 246 283 5,800 -1,080 Descending FlightAware
04:12AM 40.2010 -3.4690 97° East 241 277 5,500 -900 Descending FlightAware
04:12AM 40.1980 -3.4420 98° East 235 270 5,200 -780 Descending FlightAware
04:13AM 40.2050 -3.4130 72° East 240 276 5,000 -720 Descending FlightAware
04:13AM 40.2150 -3.3960 52° Northeast 245 282 4,800 -420 Descending FlightAware
04:13AM 40.2260 -3.3790 50° Northeast 248 285 4,800  Level FlightAware
04:13AM 40.2320 -3.3740 32° Northeast 253 291 4,800  Level FlightAware
04:13AM 40.2360 -3.3710 30° Northeast 247 284 4,800  Level FlightAware
04:13AM 40.2480 -3.3680 11° North 261 300 4,800  Level FlightAware
04:14AM 40.2760 -3.3700 357° North 260 299 4,800  Level FlightAware
04:14AM 40.2870 -3.3750 341° North 251 289 4,800 240 Level FlightAware
04:14AM 40.3030 -3.3920 321° Northwest 261 300 4,900 180 Climbing FlightAware
04:15AM 40.3180 -3.4070 323° Northwest 249 287 4,900 -360 Level FlightAware
04:15AM 40.3400 -3.4280 324° Northwest 229 264 4,700 -600 Descending FlightAware
04:15AM 40.3530 -3.4430 319° Northwest 227 261 4,500 -1,020 Descending FlightAware
04:16AM 40.3700 -3.4600 323° Northwest 224 258 4,100 -1,200 Descending FlightAware
04:16AM 40.3870 -3.4770 323° Northwest 228 262 3,700 -1,260 Descending FlightAware
04:16AM 40.4030 -3.4930 323° Northwest 205 236 3,300 -1,080 Descending FlightAware
04:17AM 40.4150 -3.5050 323° Northwest 192 221 3,000 -1,080 Descending FlightAware
04:17AM 40.4330 -3.5220 324° Northwest 163 188 2,500 -900 Descending FlightAware
04:17AM 40.4480 -3.5380 321° Northwest 150 173 2,200 -840 Descending FlightAware
04:18AM 40.4620 -3.5520 323° Northwest 145 167 1,800 -1,200 Descending FlightAware
04:18AM 40.4710 -3.5620 320° Northwest 120 138 -5,400 Descending FlightAware